sensor_id;sensor_type;location;lat;lon;timestamp;P1;durP1;ratioP1;P2;durP2;ratioP2
5351;SDS011;2698;51.454;6.736;2023-06-22T00:01:13;16.17;;;11.17;;
5351;SDS011;2698;51.454;6.736;2023-06-22T00:03:40;14.90;;;12.30;;
5351;SDS011;2698;51.454;6.736;2023-06-22T00:06:07;26.17;;;12.30;;
5351;SDS011;2698;51.454;6.736;2023-06-22T00:08:34;22.43;;;14.00;;
5351;SDS011;2698;51.454;6.736;2023-06-22T00:11:01;18.20;;;12.07;;
5351;SDS011;2698;51.454;6.736;2023-06-22T00:13:28;20.53;;;12.37;;
5351;SDS011;2698;51.454;6.736;2023-06-22T00:15:55;18.20;;;12.20;;
5351;SDS011;2698;51.454;6.736;2023-06-22T00:18:24;16.90;;;12.90;;
5351;SDS011;2698;51.454;6.736;2023-06-22T00:20:53;18.13;;;14.10;;
5351;SDS011;2698;51.454;6.736;2023-06-22T00:23:22;23.57;;;14.80;;
5351;SDS011;2698;51.454;6.736;2023-06-22T00:25:50;32.60;;;14.13;;
5351;SDS011;2698;51.454;6.736;2023-06-22T00:28:17;22.77;;;13.43;;
5351;SDS011;2698;51.454;6.736;2023-06-22T00:30:44;29.40;;;12.27;;
5351;SDS011;2698;51.454;6.736;2023-06-22T00:33:12;23.37;;;13.37;;
5351;SDS011;2698;51.454;6.736;2023-06-22T00:35:42;18.50;;;12.53;;
5351;SDS011;2698;51.454;6.736;2023-06-22T00:38:09;40.30;;;15.20;;
5351;SDS011;2698;51.454;6.736;2023-06-22T00:40:36;19.40;;;13.13;;
5351;SDS011;2698;51.454;6.736;2023-06-22T00:43:04;32.10;;;11.90;;
5351;SDS011;2698;51.454;6.736;2023-06-22T00:45:31;32.47;;;14.50;;
5351;SDS011;2698;51.454;6.736;2023-06-22T00:47:59;21.20;;;12.80;;
5351;SDS011;2698;51.454;6.736;2023-06-22T00:50:27;25.37;;;13.37;;
5351;SDS011;2698;51.454;6.736;2023-06-22T00:53:00;31.00;;;13.93;;
5351;SDS011;2698;51.454;6.736;2023-06-22T00:55:32;16.30;;;12.73;;
5351;SDS011;2698;51.454;6.736;2023-06-22T00:58:01;20.57;;;12.90;;
5351;SDS011;2698;51.454;6.736;2023-06-22T01:00:30;34.93;;;13.57;;
5351;SDS011;2698;51.454;6.736;2023-06-22T01:02:58;19.60;;;12.90;;
5351;SDS011;2698;51.454;6.736;2023-06-22T01:05:25;22.27;;;13.07;;
5351;SDS011;2698;51.454;6.736;2023-06-22T01:08:04;17.90;;;13.20;;
5351;SDS011;2698;51.454;6.736;2023-06-22T01:10:33;30.57;;;14.80;;
5351;SDS011;2698;51.454;6.736;2023-06-22T01:13:04;30.60;;;15.90;;
5351;SDS011;2698;51.454;6.736;2023-06-22T01:15:36;25.77;;;16.23;;
5351;SDS011;2698;51.454;6.736;2023-06-22T01:18:04;22.53;;;15.40;;
5351;SDS011;2698;51.454;6.736;2023-06-22T01:20:31;34.20;;;15.30;;
5351;SDS011;2698;51.454;6.736;2023-06-22T01:23:05;20.17;;;15.57;;
5351;SDS011;2698;51.454;6.736;2023-06-22T01:25:36;21.23;;;13.57;;
5351;SDS011;2698;51.454;6.736;2023-06-22T01:28:09;20.00;;;15.17;;
5351;SDS011;2698;51.454;6.736;2023-06-22T01:30:41;17.30;;;13.40;;
5351;SDS011;2698;51.454;6.736;2023-06-22T01:33:09;16.47;;;13.77;;
5351;SDS011;2698;51.454;6.736;2023-06-22T01:35:37;23.70;;;13.40;;
5351;SDS011;2698;51.454;6.736;2023-06-22T01:38:05;16.93;;;13.40;;
5351;SDS011;2698;51.454;6.736;2023-06-22T01:40:33;19.50;;;13.27;;
5351;SDS011;2698;51.454;6.736;2023-06-22T01:43:00;19.43;;;14.00;;
5351;SDS011;2698;51.454;6.736;2023-06-22T01:45:28;19.50;;;14.90;;
5351;SDS011;2698;51.454;6.736;2023-06-22T01:47:57;37.23;;;14.37;;
5351;SDS011;2698;51.454;6.736;2023-06-22T01:50:24;19.93;;;14.73;;
5351;SDS011;2698;51.454;6.736;2023-06-22T01:52:51;21.03;;;15.00;;
5351;SDS011;2698;51.454;6.736;2023-06-22T01:55:18;23.53;;;16.07;;
5351;SDS011;2698;51.454;6.736;2023-06-22T01:57:45;36.43;;;16.47;;
5351;SDS011;2698;51.454;6.736;2023-06-22T02:00:14;24.23;;;16.83;;
5351;SDS011;2698;51.454;6.736;2023-06-22T02:02:49;39.90;;;18.20;;
5351;SDS011;2698;51.454;6.736;2023-06-22T02:05:20;23.00;;;15.57;;
5351;SDS011;2698;51.454;6.736;2023-06-22T02:07:49;32.87;;;15.80;;
5351;SDS011;2698;51.454;6.736;2023-06-22T02:10:17;28.60;;;15.93;;
5351;SDS011;2698;51.454;6.736;2023-06-22T02:12:46;32.07;;;16.27;;
5351;SDS011;2698;51.454;6.736;2023-06-22T02:15:14;28.17;;;14.70;;
5351;SDS011;2698;51.454;6.736;2023-06-22T02:17:42;28.13;;;15.83;;
5351;SDS011;2698;51.454;6.736;2023-06-22T02:20:12;23.93;;;16.50;;
5351;SDS011;2698;51.454;6.736;2023-06-22T02:22:40;21.23;;;13.60;;
5351;SDS011;2698;51.454;6.736;2023-06-22T02:25:08;15.73;;;13.37;;
5351;SDS011;2698;51.454;6.736;2023-06-22T02:27:35;25.80;;;15.93;;
5351;SDS011;2698;51.454;6.736;2023-06-22T02:30:05;23.27;;;15.03;;
5351;SDS011;2698;51.454;6.736;2023-06-22T02:32:33;27.30;;;16.10;;
5351;SDS011;2698;51.454;6.736;2023-06-22T02:35:00;34.40;;;17.40;;
5351;SDS011;2698;51.454;6.736;2023-06-22T02:37:29;29.20;;;19.47;;
5351;SDS011;2698;51.454;6.736;2023-06-22T02:39:57;29.53;;;18.10;;
5351;SDS011;2698;51.454;6.736;2023-06-22T02:42:24;25.90;;;17.67;;
5351;SDS011;2698;51.454;6.736;2023-06-22T02:44:51;23.17;;;16.40;;
5351;SDS011;2698;51.454;6.736;2023-06-22T02:47:19;26.50;;;17.27;;
5351;SDS011;2698;51.454;6.736;2023-06-22T02:49:46;23.63;;;16.00;;
5351;SDS011;2698;51.454;6.736;2023-06-22T02:52:14;29.43;;;17.00;;
5351;SDS011;2698;51.454;6.736;2023-06-22T02:54:41;24.73;;;17.17;;
5351;SDS011;2698;51.454;6.736;2023-06-22T02:57:11;29.93;;;16.77;;
5351;SDS011;2698;51.454;6.736;2023-06-22T02:59:39;23.73;;;17.00;;
5351;SDS011;2698;51.454;6.736;2023-06-22T03:02:06;32.40;;;18.23;;
5351;SDS011;2698;51.454;6.736;2023-06-22T03:04:34;29.83;;;18.73;;
5351;SDS011;2698;51.454;6.736;2023-06-22T03:07:01;28.67;;;17.70;;
5351;SDS011;2698;51.454;6.736;2023-06-22T03:09:28;27.17;;;16.70;;
5351;SDS011;2698;51.454;6.736;2023-06-22T03:11:55;27.10;;;18.73;;
5351;SDS011;2698;51.454;6.736;2023-06-22T03:14:24;28.60;;;19.90;;
5351;SDS011;2698;51.454;6.736;2023-06-22T03:16:51;25.47;;;16.80;;
5351;SDS011;2698;51.454;6.736;2023-06-22T03:19:18;26.53;;;17.07;;
5351;SDS011;2698;51.454;6.736;2023-06-22T03:21:46;23.60;;;17.70;;
5351;SDS011;2698;51.454;6.736;2023-06-22T03:24:13;28.20;;;18.03;;
5351;SDS011;2698;51.454;6.736;2023-06-22T03:26:40;24.13;;;17.13;;
5351;SDS011;2698;51.454;6.736;2023-06-22T03:29:07;24.30;;;18.87;;
5351;SDS011;2698;51.454;6.736;2023-06-22T03:31:36;27.00;;;17.80;;
5351;SDS011;2698;51.454;6.736;2023-06-22T03:34:03;25.53;;;19.43;;
5351;SDS011;2698;51.454;6.736;2023-06-22T03:36:30;26.70;;;18.67;;
5351;SDS011;2698;51.454;6.736;2023-06-22T03:38:57;32.93;;;19.00;;
5351;SDS011;2698;51.454;6.736;2023-06-22T03:41:24;23.57;;;18.07;;
5351;SDS011;2698;51.454;6.736;2023-06-22T03:43:51;22.67;;;18.70;;
5351;SDS011;2698;51.454;6.736;2023-06-22T03:46:18;25.13;;;19.60;;
5351;SDS011;2698;51.454;6.736;2023-06-22T03:48:47;24.60;;;18.53;;
5351;SDS011;2698;51.454;6.736;2023-06-22T03:51:14;29.93;;;18.67;;
5351;SDS011;2698;51.454;6.736;2023-06-22T03:53:41;24.00;;;18.87;;
5351;SDS011;2698;51.454;6.736;2023-06-22T03:56:08;25.80;;;20.50;;
5351;SDS011;2698;51.454;6.736;2023-06-22T03:58:35;27.43;;;18.90;;
5351;SDS011;2698;51.454;6.736;2023-06-22T04:01:07;26.30;;;18.93;;
5351;SDS011;2698;51.454;6.736;2023-06-22T04:03:36;34.13;;;19.53;;
5351;SDS011;2698;51.454;6.736;2023-06-22T04:06:04;28.03;;;20.43;;
5351;SDS011;2698;51.454;6.736;2023-06-22T04:08:32;28.80;;;20.63;;
5351;SDS011;2698;51.454;6.736;2023-06-22T04:10:59;25.27;;;20.40;;
5351;SDS011;2698;51.454;6.736;2023-06-22T04:13:26;23.00;;;18.87;;
5351;SDS011;2698;51.454;6.736;2023-06-22T04:15:53;29.77;;;19.90;;
5351;SDS011;2698;51.454;6.736;2023-06-22T04:18:20;26.83;;;19.57;;
5351;SDS011;2698;51.454;6.736;2023-06-22T04:20:47;22.57;;;17.60;;
5351;SDS011;2698;51.454;6.736;2023-06-22T04:23:16;24.97;;;19.10;;
5351;SDS011;2698;51.454;6.736;2023-06-22T04:25:43;27.90;;;17.77;;
5351;SDS011;2698;51.454;6.736;2023-06-22T04:28:10;42.50;;;19.80;;
5351;SDS011;2698;51.454;6.736;2023-06-22T04:30:38;34.40;;;20.50;;
5351;SDS011;2698;51.454;6.736;2023-06-22T04:33:11;26.73;;;19.13;;
5351;SDS011;2698;51.454;6.736;2023-06-22T04:35:38;26.20;;;17.63;;
5351;SDS011;2698;51.454;6.736;2023-06-22T04:38:06;27.90;;;18.90;;
5351;SDS011;2698;51.454;6.736;2023-06-22T04:40:35;30.60;;;19.33;;
5351;SDS011;2698;51.454;6.736;2023-06-22T04:43:02;28.50;;;19.83;;
5351;SDS011;2698;51.454;6.736;2023-06-22T04:45:31;26.70;;;20.50;;
5351;SDS011;2698;51.454;6.736;2023-06-22T04:47:58;28.30;;;19.27;;
5351;SDS011;2698;51.454;6.736;2023-06-22T04:50:25;24.13;;;20.00;;
5351;SDS011;2698;51.454;6.736;2023-06-22T04:52:52;31.23;;;20.07;;
5351;SDS011;2698;51.454;6.736;2023-06-22T04:55:19;28.50;;;20.80;;
5351;SDS011;2698;51.454;6.736;2023-06-22T04:57:48;35.50;;;19.60;;
5351;SDS011;2698;51.454;6.736;2023-06-22T05:00:16;33.23;;;19.30;;
5351;SDS011;2698;51.454;6.736;2023-06-22T05:02:44;26.57;;;18.97;;
5351;SDS011;2698;51.454;6.736;2023-06-22T05:05:11;25.40;;;20.20;;
5351;SDS011;2698;51.454;6.736;2023-06-22T05:07:39;33.33;;;20.20;;
5351;SDS011;2698;51.454;6.736;2023-06-22T05:10:08;26.37;;;19.77;;
5351;SDS011;2698;51.454;6.736;2023-06-22T05:12:37;25.07;;;18.60;;
5351;SDS011;2698;51.454;6.736;2023-06-22T05:15:06;28.40;;;19.10;;
5351;SDS011;2698;51.454;6.736;2023-06-22T05:20:31;27.27;;;19.90;;
5351;SDS011;2698;51.454;6.736;2023-06-22T05:23:01;25.77;;;19.13;;
5351;SDS011;2698;51.454;6.736;2023-06-22T05:25:28;28.37;;;19.27;;
5351;SDS011;2698;51.454;6.736;2023-06-22T05:27:57;30.63;;;19.40;;
5351;SDS011;2698;51.454;6.736;2023-06-22T05:30:26;27.13;;;19.20;;
5351;SDS011;2698;51.454;6.736;2023-06-22T05:32:53;28.10;;;17.87;;
5351;SDS011;2698;51.454;6.736;2023-06-22T05:35:21;22.73;;;17.40;;
5351;SDS011;2698;51.454;6.736;2023-06-22T05:37:48;31.10;;;18.10;;
5351;SDS011;2698;51.454;6.736;2023-06-22T05:40:15;35.63;;;17.53;;
5351;SDS011;2698;51.454;6.736;2023-06-22T05:42:42;23.47;;;16.87;;
5351;SDS011;2698;51.454;6.736;2023-06-22T05:45:09;33.23;;;19.37;;
5351;SDS011;2698;51.454;6.736;2023-06-22T05:47:38;34.17;;;19.33;;
5351;SDS011;2698;51.454;6.736;2023-06-22T05:50:05;39.90;;;19.77;;
5351;SDS011;2698;51.454;6.736;2023-06-22T05:52:33;48.67;;;20.87;;
5351;SDS011;2698;51.454;6.736;2023-06-22T05:55:01;40.47;;;18.63;;
5351;SDS011;2698;51.454;6.736;2023-06-22T05:57:28;43.97;;;21.00;;
5351;SDS011;2698;51.454;6.736;2023-06-22T05:59:56;54.20;;;21.00;;
5351;SDS011;2698;51.454;6.736;2023-06-22T06:02:23;53.07;;;20.10;;
5351;SDS011;2698;51.454;6.736;2023-06-22T06:04:51;36.00;;;20.90;;
5351;SDS011;2698;51.454;6.736;2023-06-22T06:07:19;51.83;;;21.73;;
5351;SDS011;2698;51.454;6.736;2023-06-22T06:09:46;43.60;;;22.27;;
5351;SDS011;2698;51.454;6.736;2023-06-22T06:12:14;30.53;;;19.77;;
5351;SDS011;2698;51.454;6.736;2023-06-22T06:14:41;35.13;;;19.07;;
5351;SDS011;2698;51.454;6.736;2023-06-22T06:17:08;28.13;;;20.00;;
5351;SDS011;2698;51.454;6.736;2023-06-22T06:19:35;22.93;;;19.47;;
5351;SDS011;2698;51.454;6.736;2023-06-22T06:22:03;25.60;;;18.77;;
5351;SDS011;2698;51.454;6.736;2023-06-22T06:24:31;41.47;;;19.60;;
5351;SDS011;2698;51.454;6.736;2023-06-22T06:26:58;52.33;;;21.70;;
5351;SDS011;2698;51.454;6.736;2023-06-22T06:29:25;32.60;;;21.10;;
5351;SDS011;2698;51.454;6.736;2023-06-22T06:31:52;27.90;;;20.33;;
5351;SDS011;2698;51.454;6.736;2023-06-22T06:34:19;34.43;;;20.67;;
5351;SDS011;2698;51.454;6.736;2023-06-22T06:36:46;30.33;;;19.20;;
5351;SDS011;2698;51.454;6.736;2023-06-22T06:39:14;30.43;;;20.47;;
5351;SDS011;2698;51.454;6.736;2023-06-22T06:41:41;35.97;;;22.63;;
5351;SDS011;2698;51.454;6.736;2023-06-22T06:44:09;24.67;;;21.60;;
5351;SDS011;2698;51.454;6.736;2023-06-22T06:46:36;39.00;;;21.20;;
5351;SDS011;2698;51.454;6.736;2023-06-22T06:49:03;32.30;;;21.50;;
5351;SDS011;2698;51.454;6.736;2023-06-22T06:51:30;34.57;;;20.87;;
5351;SDS011;2698;51.454;6.736;2023-06-22T06:53:57;33.23;;;21.23;;
5351;SDS011;2698;51.454;6.736;2023-06-22T06:56:25;31.90;;;21.30;;
5351;SDS011;2698;51.454;6.736;2023-06-22T06:58:52;28.80;;;20.33;;
5351;SDS011;2698;51.454;6.736;2023-06-22T07:01:20;29.37;;;20.70;;
5351;SDS011;2698;51.454;6.736;2023-06-22T07:03:47;33.70;;;20.93;;
5351;SDS011;2698;51.454;6.736;2023-06-22T07:06:14;40.33;;;21.93;;
5351;SDS011;2698;51.454;6.736;2023-06-22T07:08:42;56.97;;;22.93;;
5351;SDS011;2698;51.454;6.736;2023-06-22T07:11:09;74.27;;;24.63;;
5351;SDS011;2698;51.454;6.736;2023-06-22T07:13:37;48.60;;;23.73;;
5351;SDS011;2698;51.454;6.736;2023-06-22T07:16:04;52.53;;;24.23;;
5351;SDS011;2698;51.454;6.736;2023-06-22T07:18:31;29.97;;;22.20;;
5351;SDS011;2698;51.454;6.736;2023-06-22T07:20:58;27.60;;;20.00;;
5351;SDS011;2698;51.454;6.736;2023-06-22T07:23:25;27.13;;;19.30;;
5351;SDS011;2698;51.454;6.736;2023-06-22T07:25:54;42.83;;;21.87;;
5351;SDS011;2698;51.454;6.736;2023-06-22T07:28:21;32.43;;;20.93;;
5351;SDS011;2698;51.454;6.736;2023-06-22T07:30:50;35.77;;;22.37;;
5351;SDS011;2698;51.454;6.736;2023-06-22T07:33:17;38.07;;;24.10;;
5351;SDS011;2698;51.454;6.736;2023-06-22T07:35:44;36.50;;;21.33;;
5351;SDS011;2698;51.454;6.736;2023-06-22T07:38:12;51.30;;;22.57;;
5351;SDS011;2698;51.454;6.736;2023-06-22T07:40:40;37.33;;;22.10;;
5351;SDS011;2698;51.454;6.736;2023-06-22T07:43:08;46.87;;;23.00;;
5351;SDS011;2698;51.454;6.736;2023-06-22T07:45:35;29.13;;;21.63;;
5351;SDS011;2698;51.454;6.736;2023-06-22T07:48:03;26.57;;;22.37;;
5351;SDS011;2698;51.454;6.736;2023-06-22T07:50:30;38.47;;;23.60;;
5351;SDS011;2698;51.454;6.736;2023-06-22T07:52:57;33.40;;;24.80;;
5351;SDS011;2698;51.454;6.736;2023-06-22T07:55:24;34.50;;;23.47;;
5351;SDS011;2698;51.454;6.736;2023-06-22T07:57:51;41.57;;;23.63;;
5351;SDS011;2698;51.454;6.736;2023-06-22T08:00:19;38.47;;;24.23;;
5351;SDS011;2698;51.454;6.736;2023-06-22T08:02:46;38.17;;;24.37;;
5351;SDS011;2698;51.454;6.736;2023-06-22T08:05:14;37.50;;;24.77;;
5351;SDS011;2698;51.454;6.736;2023-06-22T08:07:42;39.53;;;23.87;;
5351;SDS011;2698;51.454;6.736;2023-06-22T08:10:10;38.57;;;25.53;;
5351;SDS011;2698;51.454;6.736;2023-06-22T08:12:37;38.60;;;23.57;;
5351;SDS011;2698;51.454;6.736;2023-06-22T08:15:05;41.80;;;24.17;;
5351;SDS011;2698;51.454;6.736;2023-06-22T08:17:33;41.37;;;26.27;;
5351;SDS011;2698;51.454;6.736;2023-06-22T08:20:00;37.87;;;25.77;;
5351;SDS011;2698;51.454;6.736;2023-06-22T08:22:31;36.00;;;27.17;;
5351;SDS011;2698;51.454;6.736;2023-06-22T08:24:58;46.77;;;26.23;;
5351;SDS011;2698;51.454;6.736;2023-06-22T08:27:25;41.37;;;23.77;;
5351;SDS011;2698;51.454;6.736;2023-06-22T08:29:54;51.67;;;24.53;;
5351;SDS011;2698;51.454;6.736;2023-06-22T08:32:23;31.37;;;23.00;;
5351;SDS011;2698;51.454;6.736;2023-06-22T08:34:51;33.17;;;24.90;;
5351;SDS011;2698;51.454;6.736;2023-06-22T08:37:18;37.27;;;26.50;;
5351;SDS011;2698;51.454;6.736;2023-06-22T08:39:47;32.93;;;24.33;;
5351;SDS011;2698;51.454;6.736;2023-06-22T08:42:14;36.53;;;24.00;;
5351;SDS011;2698;51.454;6.736;2023-06-22T08:44:42;33.37;;;23.97;;
5351;SDS011;2698;51.454;6.736;2023-06-22T08:47:09;39.80;;;23.93;;
5351;SDS011;2698;51.454;6.736;2023-06-22T08:49:36;33.67;;;25.13;;
5351;SDS011;2698;51.454;6.736;2023-06-22T08:52:04;31.00;;;23.93;;
5351;SDS011;2698;51.454;6.736;2023-06-22T08:54:31;38.27;;;25.37;;
5351;SDS011;2698;51.454;6.736;2023-06-22T08:57:01;36.43;;;26.60;;
5351;SDS011;2698;51.454;6.736;2023-06-22T08:59:28;39.77;;;26.10;;
5351;SDS011;2698;51.454;6.736;2023-06-22T09:01:57;52.97;;;31.33;;
5351;SDS011;2698;51.454;6.736;2023-06-22T09:04:24;50.07;;;27.27;;
5351;SDS011;2698;51.454;6.736;2023-06-22T09:06:51;35.93;;;26.50;;
5351;SDS011;2698;51.454;6.736;2023-06-22T09:09:18;37.10;;;26.73;;
5351;SDS011;2698;51.454;6.736;2023-06-22T09:11:45;35.67;;;26.90;;
5351;SDS011;2698;51.454;6.736;2023-06-22T09:14:14;34.90;;;26.67;;
5351;SDS011;2698;51.454;6.736;2023-06-22T09:16:41;33.87;;;25.50;;
5351;SDS011;2698;51.454;6.736;2023-06-22T09:19:08;35.23;;;23.93;;
5351;SDS011;2698;51.454;6.736;2023-06-22T09:21:35;30.43;;;25.60;;
5351;SDS011;2698;51.454;6.736;2023-06-22T09:24:03;39.53;;;24.70;;
5351;SDS011;2698;51.454;6.736;2023-06-22T09:26:30;34.83;;;25.07;;
5351;SDS011;2698;51.454;6.736;2023-06-22T09:28:57;38.00;;;24.83;;
5351;SDS011;2698;51.454;6.736;2023-06-22T09:31:25;39.97;;;23.87;;
5351;SDS011;2698;51.454;6.736;2023-06-22T09:33:53;34.27;;;23.70;;
5351;SDS011;2698;51.454;6.736;2023-06-22T09:36:20;39.27;;;24.67;;
5351;SDS011;2698;51.454;6.736;2023-06-22T09:38:48;33.47;;;24.80;;
5351;SDS011;2698;51.454;6.736;2023-06-22T09:41:20;37.70;;;24.83;;
5351;SDS011;2698;51.454;6.736;2023-06-22T09:43:47;30.57;;;26.10;;
5351;SDS011;2698;51.454;6.736;2023-06-22T09:46:14;37.70;;;23.63;;
5351;SDS011;2698;51.454;6.736;2023-06-22T09:48:43;35.47;;;27.63;;
5351;SDS011;2698;51.454;6.736;2023-06-22T09:51:11;28.10;;;24.17;;
5351;SDS011;2698;51.454;6.736;2023-06-22T09:53:38;32.27;;;24.90;;
5351;SDS011;2698;51.454;6.736;2023-06-22T09:56:05;35.60;;;23.50;;
5351;SDS011;2698;51.454;6.736;2023-06-22T09:58:36;32.70;;;25.17;;
5351;SDS011;2698;51.454;6.736;2023-06-22T10:01:03;38.73;;;22.60;;
5351;SDS011;2698;51.454;6.736;2023-06-22T10:03:30;39.73;;;24.50;;
5351;SDS011;2698;51.454;6.736;2023-06-22T10:05:58;29.10;;;22.70;;
5351;SDS011;2698;51.454;6.736;2023-06-22T10:08:26;30.77;;;22.73;;
5351;SDS011;2698;51.454;6.736;2023-06-22T10:10:53;32.83;;;23.90;;
5351;SDS011;2698;51.454;6.736;2023-06-22T10:13:20;26.37;;;22.03;;
5351;SDS011;2698;51.454;6.736;2023-06-22T10:15:47;33.30;;;21.20;;
5351;SDS011;2698;51.454;6.736;2023-06-22T10:18:16;30.67;;;22.13;;
5351;SDS011;2698;51.454;6.736;2023-06-22T10:20:43;28.07;;;19.43;;
5351;SDS011;2698;51.454;6.736;2023-06-22T10:23:11;28.40;;;21.03;;
5351;SDS011;2698;51.454;6.736;2023-06-22T10:25:38;36.10;;;22.67;;
5351;SDS011;2698;51.454;6.736;2023-06-22T10:28:05;26.77;;;21.43;;
5351;SDS011;2698;51.454;6.736;2023-06-22T10:30:33;24.00;;;18.27;;
5351;SDS011;2698;51.454;6.736;2023-06-22T10:33:00;23.77;;;17.90;;
5351;SDS011;2698;51.454;6.736;2023-06-22T10:35:27;26.17;;;20.77;;
5351;SDS011;2698;51.454;6.736;2023-06-22T10:37:54;29.90;;;19.37;;
5351;SDS011;2698;51.454;6.736;2023-06-22T10:40:23;22.10;;;18.83;;
5351;SDS011;2698;51.454;6.736;2023-06-22T10:42:50;25.13;;;19.27;;
5351;SDS011;2698;51.454;6.736;2023-06-22T10:45:17;27.60;;;19.93;;
5351;SDS011;2698;51.454;6.736;2023-06-22T10:47:44;27.23;;;20.23;;
5351;SDS011;2698;51.454;6.736;2023-06-22T10:50:11;33.50;;;19.50;;
5351;SDS011;2698;51.454;6.736;2023-06-22T10:52:39;25.97;;;19.50;;
5351;SDS011;2698;51.454;6.736;2023-06-22T10:55:06;26.43;;;17.93;;
5351;SDS011;2698;51.454;6.736;2023-06-22T10:57:35;25.30;;;19.77;;
5351;SDS011;2698;51.454;6.736;2023-06-22T11:00:04;21.13;;;17.73;;
5351;SDS011;2698;51.454;6.736;2023-06-22T11:02:33;21.27;;;19.03;;
5351;SDS011;2698;51.454;6.736;2023-06-22T11:05:00;23.67;;;18.23;;
5351;SDS011;2698;51.454;6.736;2023-06-22T11:07:28;23.83;;;20.63;;
5351;SDS011;2698;51.454;6.736;2023-06-22T11:09:57;26.13;;;19.30;;
5351;SDS011;2698;51.454;6.736;2023-06-22T11:12:24;26.63;;;20.07;;
5351;SDS011;2698;51.454;6.736;2023-06-22T11:14:53;27.43;;;20.00;;
5351;SDS011;2698;51.454;6.736;2023-06-22T11:17:22;29.80;;;21.97;;
5351;SDS011;2698;51.454;6.736;2023-06-22T11:19:49;33.93;;;20.10;;
5351;SDS011;2698;51.454;6.736;2023-06-22T11:22:16;27.57;;;19.70;;
5351;SDS011;2698;51.454;6.736;2023-06-22T11:24:43;23.90;;;18.80;;
5351;SDS011;2698;51.454;6.736;2023-06-22T11:27:10;27.00;;;20.90;;
5351;SDS011;2698;51.454;6.736;2023-06-22T11:29:37;29.63;;;20.97;;
5351;SDS011;2698;51.454;6.736;2023-06-22T11:32:07;35.27;;;23.40;;
5351;SDS011;2698;51.454;6.736;2023-06-22T11:34:34;32.03;;;22.33;;
5351;SDS011;2698;51.454;6.736;2023-06-22T11:37:01;46.00;;;21.87;;
5351;SDS011;2698;51.454;6.736;2023-06-22T11:39:28;36.30;;;23.60;;
5351;SDS011;2698;51.454;6.736;2023-06-22T11:41:55;43.73;;;25.43;;
5351;SDS011;2698;51.454;6.736;2023-06-22T11:44:22;36.00;;;25.90;;
5351;SDS011;2698;51.454;6.736;2023-06-22T11:46:49;27.20;;;23.77;;
5351;SDS011;2698;51.454;6.736;2023-06-22T11:49:18;37.37;;;25.60;;
5351;SDS011;2698;51.454;6.736;2023-06-22T11:51:45;36.00;;;25.60;;
5351;SDS011;2698;51.454;6.736;2023-06-22T11:54:12;41.90;;;30.50;;
5351;SDS011;2698;51.454;6.736;2023-06-22T11:56:39;43.87;;;29.57;;
5351;SDS011;2698;51.454;6.736;2023-06-22T11:59:06;62.40;;;32.37;;
5351;SDS011;2698;51.454;6.736;2023-06-22T12:01:33;49.67;;;33.83;;
5351;SDS011;2698;51.454;6.736;2023-06-22T12:04:00;51.70;;;33.03;;
5351;SDS011;2698;51.454;6.736;2023-06-22T12:06:32;49.73;;;35.67;;
5351;SDS011;2698;51.454;6.736;2023-06-22T12:09:01;43.80;;;32.37;;
5351;SDS011;2698;51.454;6.736;2023-06-22T12:11:29;41.77;;;32.37;;
5351;SDS011;2698;51.454;6.736;2023-06-22T12:13:56;43.57;;;32.03;;
5351;SDS011;2698;51.454;6.736;2023-06-22T12:16:26;43.97;;;32.13;;
5351;SDS011;2698;51.454;6.736;2023-06-22T12:18:53;51.87;;;37.20;;
5351;SDS011;2698;51.454;6.736;2023-06-22T12:21:20;45.23;;;33.80;;
5351;SDS011;2698;51.454;6.736;2023-06-22T12:23:49;48.67;;;36.37;;
5351;SDS011;2698;51.454;6.736;2023-06-22T12:26:16;43.63;;;34.00;;
5351;SDS011;2698;51.454;6.736;2023-06-22T12:28:43;42.43;;;33.30;;
5351;SDS011;2698;51.454;6.736;2023-06-22T12:31:10;44.13;;;32.90;;
5351;SDS011;2698;51.454;6.736;2023-06-22T12:33:37;53.77;;;34.10;;
5351;SDS011;2698;51.454;6.736;2023-06-22T12:36:04;37.33;;;31.30;;
5351;SDS011;2698;51.454;6.736;2023-06-22T12:38:31;44.23;;;32.60;;
5351;SDS011;2698;51.454;6.736;2023-06-22T12:41:00;43.93;;;34.37;;
5351;SDS011;2698;51.454;6.736;2023-06-22T12:43:27;41.37;;;31.63;;
5351;SDS011;2698;51.454;6.736;2023-06-22T12:45:54;42.43;;;33.23;;
5351;SDS011;2698;51.454;6.736;2023-06-22T12:48:21;44.90;;;34.80;;
5351;SDS011;2698;51.454;6.736;2023-06-22T12:50:50;48.00;;;35.03;;
5351;SDS011;2698;51.454;6.736;2023-06-22T12:53:17;40.67;;;32.90;;
5351;SDS011;2698;51.454;6.736;2023-06-22T12:55:44;44.73;;;33.80;;
5351;SDS011;2698;51.454;6.736;2023-06-22T12:58:12;39.23;;;32.43;;
5351;SDS011;2698;51.454;6.736;2023-06-22T13:00:39;40.63;;;34.30;;
5351;SDS011;2698;51.454;6.736;2023-06-22T13:03:07;48.23;;;32.27;;
5351;SDS011;2698;51.454;6.736;2023-06-22T13:05:34;50.60;;;32.17;;
5351;SDS011;2698;51.454;6.736;2023-06-22T13:08:01;38.57;;;32.57;;
5351;SDS011;2698;51.454;6.736;2023-06-22T13:10:28;44.57;;;33.53;;
5351;SDS011;2698;51.454;6.736;2023-06-22T13:12:55;48.27;;;35.77;;
5351;SDS011;2698;51.454;6.736;2023-06-22T13:15:27;40.40;;;34.33;;
5351;SDS011;2698;51.454;6.736;2023-06-22T13:17:54;44.33;;;35.73;;
5351;SDS011;2698;51.454;6.736;2023-06-22T13:20:22;47.67;;;35.33;;
5351;SDS011;2698;51.454;6.736;2023-06-22T13:22:49;47.47;;;36.40;;
5351;SDS011;2698;51.454;6.736;2023-06-22T13:25:16;47.27;;;36.03;;
5351;SDS011;2698;51.454;6.736;2023-06-22T13:27:45;49.20;;;39.80;;
5351;SDS011;2698;51.454;6.736;2023-06-22T13:30:13;49.53;;;35.90;;
5351;SDS011;2698;51.454;6.736;2023-06-22T13:32:41;46.33;;;38.50;;
5351;SDS011;2698;51.454;6.736;2023-06-22T13:35:08;50.27;;;39.60;;
5351;SDS011;2698;51.454;6.736;2023-06-22T13:37:37;58.53;;;39.23;;
5351;SDS011;2698;51.454;6.736;2023-06-22T13:40:05;48.47;;;38.73;;
5351;SDS011;2698;51.454;6.736;2023-06-22T13:42:32;45.47;;;39.43;;
5351;SDS011;2698;51.454;6.736;2023-06-22T13:44:59;45.63;;;38.90;;
5351;SDS011;2698;51.454;6.736;2023-06-22T13:47:26;54.93;;;40.83;;
5351;SDS011;2698;51.454;6.736;2023-06-22T13:49:55;43.67;;;38.20;;
5351;SDS011;2698;51.454;6.736;2023-06-22T13:52:22;46.20;;;39.23;;
5351;SDS011;2698;51.454;6.736;2023-06-22T13:54:49;43.37;;;36.80;;
5351;SDS011;2698;51.454;6.736;2023-06-22T13:57:16;55.83;;;39.00;;
5351;SDS011;2698;51.454;6.736;2023-06-22T13:59:43;44.13;;;39.27;;
5351;SDS011;2698;51.454;6.736;2023-06-22T14:02:10;42.10;;;35.70;;
5351;SDS011;2698;51.454;6.736;2023-06-22T14:04:38;42.97;;;36.00;;
5351;SDS011;2698;51.454;6.736;2023-06-22T14:07:06;44.47;;;35.23;;
5351;SDS011;2698;51.454;6.736;2023-06-22T14:09:33;46.60;;;35.77;;
5351;SDS011;2698;51.454;6.736;2023-06-22T14:12:02;48.80;;;34.47;;
5351;SDS011;2698;51.454;6.736;2023-06-22T14:14:29;48.50;;;34.83;;
5351;SDS011;2698;51.454;6.736;2023-06-22T14:16:56;45.97;;;32.97;;
5351;SDS011;2698;51.454;6.736;2023-06-22T14:19:23;39.83;;;34.60;;
5351;SDS011;2698;51.454;6.736;2023-06-22T14:21:51;45.47;;;32.20;;
5351;SDS011;2698;51.454;6.736;2023-06-22T14:24:19;39.57;;;33.30;;
5351;SDS011;2698;51.454;6.736;2023-06-22T14:26:46;38.40;;;34.30;;
5351;SDS011;2698;51.454;6.736;2023-06-22T14:29:13;44.97;;;35.77;;
5351;SDS011;2698;51.454;6.736;2023-06-22T14:31:40;41.83;;;35.20;;
5351;SDS011;2698;51.454;6.736;2023-06-22T14:34:07;40.40;;;33.40;;
5351;SDS011;2698;51.454;6.736;2023-06-22T14:36:34;49.53;;;36.63;;
5351;SDS011;2698;51.454;6.736;2023-06-22T14:39:02;43.10;;;34.27;;
5351;SDS011;2698;51.454;6.736;2023-06-22T14:41:30;48.10;;;33.70;;
5351;SDS011;2698;51.454;6.736;2023-06-22T14:43:57;46.03;;;34.63;;
5351;SDS011;2698;51.454;6.736;2023-06-22T14:46:24;41.33;;;34.03;;
5351;SDS011;2698;51.454;6.736;2023-06-22T14:48:51;47.67;;;34.07;;
5351;SDS011;2698;51.454;6.736;2023-06-22T14:51:19;38.23;;;31.67;;
5351;SDS011;2698;51.454;6.736;2023-06-22T14:53:46;44.80;;;34.33;;